Airfield :







YOU CAN JOIN US ON...

 
LOGIN :

Register | Disclaimer

   EN    FR    IT 

 









Legend :    VFR   Marginal VFR   IFR   Intensive IFR   Very Intensive IFR
Visi :
Ceiling :
>= 8 km
>= 3000ft
5 to 8 km
1000 to 3000 ft
1500m to 5 km
500 to 1000 ft
800 to 1500m
200 to 500 ft
< 800m
< 200 ft
Symbols :   Thunderstorms  Fog  Heavy snow  Heavy precipitations  Wind > 20 kt






- Airport Elevation : 270 ft
- IATA code : YMX


CYMX - Montreal International Mirabel

CURRENT METAR :
  • 170330Z 23006KT 15SM FEW017 BKN075 OVC170 M01/M03 A2996 RMK SC2AC5AC1 SLP150

EXPIRED METARs :
  • 170300Z 23006KT 15SM -SN SCT040 OVC074 M01/M03 A2995 RMK SC3AC5 INTMT -SN SLP148
  • 170200Z 25009KT 4SM -SN FEW022 OVC037 M00/M03 A2994 RMK SC2SC6 SLP144
  • 170127Z 24009KT 8SM -SN BKN036 OVC085 00/M04 A2993 RMK SC7AC1 SLP141
  • 170100Z 23009G18KT 25SM BKN047 OVC087 00/M05 A2993 RMK SC6AC2 SLP140

TAF TAF CYMX
Valid from the 17 at 00:00 until the 18 at 00:00 UTC


162339Z 1700/1724 22007KT P6SM SCT025 BKN040
TEMPO 1700/1701 5SM -SHSN
FM170100 24007KT P6SM BKN030
TEMPO 1701/1707 21/2SM -SHSN OVC020
PROB30 1701/1706 3/4SM -SHSN VV008
FM170800 26007KT P6SM SCT040
BECMG 1711/1713 28008KT
BECMG 1722/1724 VRB03KT RMK NXT FCST BY 170600Z



MET'MAP, your aeronautical weather chart ! - Copyright ORBIFLY December 2007 - Disclaimer

ORBIFLY MET'MAP TEAM :

Programming & Development : Alexandra Zaïnal
Concept & original design : Baudouin d'Aumeries
Assistance for programming : Marc-Olivier Méhu
Technical & hardware support : Manuel Goepfert

Contact : metmap@orbifly.com




SOURCES & CREDITS :

   NOAA